Time;durP1;ratioP1;P1;durP2;ratioP2;P2;SDS_P1;SDS_P2;PMS_P1;PMS_P2;Temp;Humidity;BMP_temperature;BMP_pressure;BME280_temperature;BME280_humidity;BME280_pressure;Samples;Min_cycle;Max_cycle;Signal;HPM_P1;HPM_P2
2023/03/08 00:01:56;;;;;;;0.50;0.10;;;4.10;99.90;;;;;;5012719;28;20454;-74
2023/03/08 00:04:24;;;;;;;0.50;0.10;;;4.10;99.90;;;;;;5011691;28;20502;-74
2023/03/08 00:06:52;;;;;;;0.50;0.10;;;4.10;99.90;;;;;;5012429;28;20562;-73
2023/03/08 00:09:21;;;;;;;0.50;0.10;;;4.10;99.90;;;;;;5011228;28;20444;-74
2023/03/08 00:11:49;;;;;;;0.53;0.30;;;4.10;99.90;;;;;;5013254;28;20453;-74
2023/03/08 00:14:17;;;;;;;0.50;0.10;;;4.10;99.90;;;;;;5014068;28;20444;-73
2023/03/08 00:16:45;;;;;;;0.50;0.20;;;4.10;99.90;;;;;;5006288;28;20471;-72
2023/03/08 00:19:13;;;;;;;0.50;0.10;;;4.10;99.90;;;;;;5005151;28;20450;-74
2023/03/08 00:21:40;;;;;;;0.50;0.10;;;4.00;99.90;;;;;;5005128;28;20440;-73
2023/03/08 00:24:09;;;;;;;0.50;0.20;;;4.10;99.90;;;;;;4994579;28;20437;-73
2023/03/08 00:26:38;;;;;;;0.50;0.20;;;4.10;99.90;;;;;;4994175;28;20475;-74
2023/03/08 00:29:06;;;;;;;0.50;0.10;;;4.10;99.90;;;;;;5004871;28;20441;-73
2023/03/08 00:31:33;;;;;;;0.50;0.10;;;4.00;99.90;;;;;;5012564;28;20566;-75
2023/03/08 00:34:01;;;;;;;0.50;0.10;;;4.10;99.90;;;;;;5012809;28;20450;-74
2023/03/08 00:36:29;;;;;;;1.53;0.50;;;4.10;99.90;;;;;;5013459;28;21010;-74
2023/03/08 00:38:57;;;;;;;0.50;0.10;;;4.10;99.90;;;;;;5012922;28;20501;-74
2023/03/08 00:41:25;;;;;;;0.50;0.10;;;4.10;99.90;;;;;;5013720;28;20502;-74
2023/03/08 00:43:54;;;;;;;0.50;0.17;;;4.10;99.90;;;;;;5012498;28;21008;-73
2023/03/08 00:46:22;;;;;;;0.50;0.20;;;4.10;99.90;;;;;;5012700;28;20470;-73
2023/03/08 00:48:49;;;;;;;0.50;0.10;;;4.10;99.90;;;;;;5008224;28;20453;-74
2023/03/08 00:51:19;;;;;;;0.50;0.10;;;4.10;99.90;;;;;;5004700;28;20477;-73
2023/03/08 00:53:47;;;;;;;0.50;0.20;;;4.10;99.90;;;;;;5009494;28;20444;-73
2023/03/08 00:56:15;;;;;;;0.50;0.10;;;4.10;99.90;;;;;;5012689;28;20847;-73
2023/03/08 00:58:42;;;;;;;0.50;0.10;;;4.00;99.90;;;;;;5013455;28;20446;-74
2023/03/08 05:00:47;;;;;;;0.50;0.10;;;4.80;99.90;;;;;;5908577;23;22024;-72
2023/03/08 05:03:15;;;;;;;1.00;0.83;;;4.70;99.90;;;;;;5007151;28;20939;-71
2023/03/08 05:05:47;;;;;;;1.57;0.93;;;;;;;;;;5004293;28;20454;-71
2023/03/08 05:08:16;;;;;;;0.50;0.10;;;4.50;99.90;;;;;;5017345;28;20461;-72
2023/03/08 05:10:47;;;;;;;0.50;0.20;;;;;;;;;;5017268;28;20479;-69
2023/03/08 05:13:15;;;;;;;0.50;0.10;;;4.60;99.90;;;;;;5015860;28;20466;-73
2023/03/08 05:15:43;;;;;;;0.50;0.10;;;4.70;99.90;;;;;;5006644;28;20457;-72
2023/03/08 05:18:12;;;;;;;0.50;0.10;;;4.80;99.90;;;;;;5007351;28;20492;-72
2023/03/08 05:20:40;;;;;;;0.50;0.10;;;4.90;99.90;;;;;;5015754;28;20728;-73
2023/03/08 05:23:08;;;;;;;0.50;0.10;;;4.90;99.90;;;;;;5005896;28;20477;-72
2023/03/08 05:25:42;;;;;;;0.50;0.10;;;5.00;99.90;;;;;;4996441;28;20452;-74
2023/03/08 05:28:14;;;;;;;1.67;1.57;;;5.00;99.90;;;;;;4996397;28;20465;-73
2023/03/08 05:30:42;;;;;;;0.50;0.10;;;5.00;99.90;;;;;;4998558;28;21013;-73
2023/03/08 05:33:11;;;;;;;0.50;0.10;;;5.10;99.90;;;;;;5014942;28;20453;-74
2023/03/08 05:35:39;;;;;;;0.50;0.10;;;5.10;99.90;;;;;;5007026;28;20485;-72
2023/03/08 05:38:07;;;;;;;0.50;0.10;;;5.10;99.90;;;;;;5016190;28;20443;-72
2023/03/08 05:40:35;;;;;;;2.70;2.30;;;5.10;99.90;;;;;;5006625;28;20454;-73
2023/03/08 05:43:02;;;;;;;0.50;0.20;;;5.10;99.90;;;;;;5004091;28;20452;-73
2023/03/08 05:45:31;;;;;;;0.50;0.20;;;;;;;;;;4999077;28;20523;-74
2023/03/08 05:47:59;;;;;;;0.53;0.27;;;5.10;99.90;;;;;;5014909;28;20455;-73
2023/03/08 05:50:28;;;;;;;0.50;0.20;;;5.00;99.90;;;;;;5015025;28;20468;-73
2023/03/08 05:52:56;;;;;;;0.50;0.20;;;5.00;99.90;;;;;;5010783;28;20470;-71
2023/03/08 05:55:24;;;;;;;0.77;0.60;;;5.00;99.90;;;;;;5007476;28;20533;-72
2023/03/08 05:57:52;;;;;;;4.33;1.90;;;5.00;99.90;;;;;;5015375;28;20452;-72
2023/03/08 06:00:20;;;;;;;0.70;0.37;;;4.90;99.90;;;;;;5015139;28;20462;-73
2023/03/08 06:02:48;;;;;;;1.70;1.13;;;4.80;99.90;;;;;;5009543;28;20512;-75
2023/03/08 06:05:16;;;;;;;0.50;0.20;;;4.70;99.90;;;;;;5010001;28;20459;-73
2023/03/08 06:07:45;;;;;;;6.03;1.03;;;4.70;99.90;;;;;;5006835;28;20451;-73
2023/03/08 06:10:13;;;;;;;1.00;0.97;;;4.60;99.90;;;;;;5005589;28;20858;-73
2023/03/08 06:12:40;;;;;;;0.50;0.10;;;4.70;99.90;;;;;;5014533;28;20479;-73
2023/03/08 06:15:09;;;;;;;0.50;0.10;;;4.70;99.90;;;;;;5012054;28;20448;-73
2023/03/08 06:17:36;;;;;;;0.50;0.20;;;4.70;99.90;;;;;;4995364;28;20452;-72
2023/03/08 06:20:05;;;;;;;4.70;4.27;;;4.60;99.90;;;;;;4995703;28;20851;-73
2023/03/08 06:22:33;;;;;;;0.50;0.20;;;4.50;99.90;;;;;;4995183;28;20464;-72
2023/03/08 06:25:02;;;;;;;0.50;0.10;;;4.40;99.90;;;;;;5008859;28;20467;-74
2023/03/08 06:27:30;;;;;;;0.50;0.20;;;4.50;99.90;;;;;;5008897;28;20452;-74
2023/03/08 06:29:58;;;;;;;0.50;0.10;;;4.50;99.90;;;;;;5013840;28;20451;-73
2023/03/08 06:32:26;;;;;;;0.50;0.10;;;4.50;99.90;;;;;;5005164;28;20575;-73
2023/03/08 06:34:53;;;;;;;0.50;0.10;;;4.60;99.90;;;;;;4997448;28;20534;-74
2023/03/08 06:37:21;;;;;;;3.53;2.00;;;4.60;99.90;;;;;;4995913;28;20783;-72
2023/03/08 06:39:49;;;;;;;0.50;0.10;;;4.60;99.90;;;;;;5003420;28;20461;-74
2023/03/08 06:42:18;;;;;;;0.50;0.10;;;4.60;99.90;;;;;;5009286;28;20484;-74
2023/03/08 06:44:57;;;;;;;0.50;0.10;;;4.60;99.90;;;;;;5003856;28;20475;-73
2023/03/08 06:47:27;;;;;;;0.50;0.10;;;5.90;99.90;;;;;;5009321;28;20446;-73
2023/03/08 06:49:55;;;;;;;0.50;0.10;;;4.60;99.90;;;;;;5008894;28;20450;-73
2023/03/08 06:52:22;;;;;;;0.50;0.10;;;4.70;99.90;;;;;;5000153;28;20494;-74
2023/03/08 06:54:50;;;;;;;0.50;0.10;;;4.60;99.90;;;;;;5011679;28;20444;-73
2023/03/08 06:57:19;;;;;;;0.50;0.10;;;4.60;99.90;;;;;;5007140;28;20490;-73
2023/03/08 06:59:47;;;;;;;0.50;0.10;;;4.60;99.90;;;;;;5001382;28;20457;-73
2023/03/08 07:02:15;;;;;;;0.50;0.10;;;4.60;99.90;;;;;;5002948;28;20469;-75
2023/03/08 07:04:43;;;;;;;0.50;0.10;;;4.70;99.90;;;;;;5007421;28;20448;-72
2023/03/08 07:07:10;;;;;;;0.50;0.10;;;4.70;99.90;;;;;;5003268;28;20772;-73
2023/03/08 07:09:38;;;;;;;0.50;0.10;;;4.80;99.90;;;;;;5002577;28;20451;-73
2023/03/08 07:12:07;;;;;;;0.50;0.10;;;3.60;99.90;;;;;;5005967;28;20505;-72
2023/03/08 07:14:36;;;;;;;0.50;0.10;;;4.80;99.90;;;;;;5013719;28;20541;-74
2023/03/08 07:17:04;;;;;;;0.50;0.10;;;4.80;99.90;;;;;;5014262;28;20458;-73
2023/03/08 07:19:32;;;;;;;0.50;0.10;;;;;;;;;;5015363;28;20891;-73
2023/03/08 07:22:00;;;;;;;0.50;0.10;;;4.90;99.90;;;;;;5014922;28;20468;-73
2023/03/08 07:24:27;;;;;;;0.50;0.10;;;4.90;99.90;;;;;;5014951;28;20475;-73
2023/03/08 07:26:55;;;;;;;0.70;0.50;;;4.80;99.90;;;;;;5016358;28;20446;-74
2023/03/08 07:29:23;;;;;;;0.50;0.10;;;4.80;99.90;;;;;;5022709;28;20442;-72
2023/03/08 07:31:52;;;;;;;0.50;0.10;;;4.80;99.90;;;;;;5021297;28;20487;-72
2023/03/08 07:34:20;;;;;;;0.50;0.10;;;4.90;99.90;;;;;;5019250;28;20447;-73
2023/03/08 07:36:48;;;;;;;0.50;0.10;;;4.80;99.90;;;;;;5015200;28;20443;-74
2023/03/08 07:39:17;;;;;;;0.50;0.10;;;4.80;99.90;;;;;;5015784;28;20959;-74
2023/03/08 07:41:44;;;;;;;0.50;0.10;;;4.70;99.90;;;;;;5015168;28;20493;-74
2023/03/08 07:44:14;;;;;;;0.50;0.23;;;4.70;99.90;;;;;;5014274;28;20452;-74
2023/03/08 07:46:42;;;;;;;0.50;0.10;;;4.70;99.90;;;;;;5014961;28;20451;-73
2023/03/08 07:49:11;;;;;;;0.50;0.10;;;4.70;99.90;;;;;;5014854;28;20509;-73
2023/03/08 07:51:39;;;;;;;2.30;1.33;;;4.70;99.90;;;;;;5013449;28;20473;-73
2023/03/08 07:54:09;;;;;;;0.50;0.10;;;4.70;99.90;;;;;;5013453;28;20455;-72
2023/03/08 07:56:36;;;;;;;0.50;0.10;;;4.70;99.90;;;;;;5014040;28;20448;-72
2023/03/08 07:59:04;;;;;;;0.50;0.10;;;4.70;99.90;;;;;;5014480;28;20454;-72
2023/03/08 08:01:32;;;;;;;1.03;0.50;;;4.60;99.90;;;;;;5014699;28;20482;-72
2023/03/08 08:04:00;;;;;;;0.50;0.10;;;4.60;99.90;;;;;;5014680;28;20613;-74
2023/03/08 08:06:30;;;;;;;0.50;0.10;;;4.50;99.90;;;;;;5014798;28;20455;-72
2023/03/08 08:08:58;;;;;;;0.50;0.20;;;4.50;99.90;;;;;;5014296;28;20453;-72
2023/03/08 08:11:25;;;;;;;0.50;0.20;;;4.60;99.90;;;;;;5013916;28;20477;-73
2023/03/08 08:13:53;;;;;;;0.50;0.10;;;4.60;99.90;;;;;;5014047;28;20541;-72
2023/03/08 08:16:21;;;;;;;0.50;0.10;;;4.50;99.90;;;;;;5014125;28;20574;-72
2023/03/08 08:18:51;;;;;;;0.50;0.10;;;4.50;99.90;;;;;;5014114;28;20545;-73
2023/03/08 08:21:20;;;;;;;0.70;0.57;;;4.50;99.90;;;;;;5013263;28;20814;-73
2023/03/08 08:23:49;;;;;;;0.90;0.30;;;4.50;99.90;;;;;;4997410;28;20439;-72
2023/03/08 08:26:20;;;;;;;0.50;0.10;;;4.40;99.90;;;;;;4994156;28;20436;-74
2023/03/08 08:28:50;;;;;;;0.50;0.10;;;4.50;99.90;;;;;;4993351;28;20452;-72
2023/03/08 08:31:21;;;;;;;0.50;0.10;;;4.50;99.90;;;;;;4993108;28;20499;-73
2023/03/08 08:33:49;;;;;;;0.50;0.10;;;4.50;99.90;;;;;;4993740;28;20481;-72
2023/03/08 08:36:19;;;;;;;0.50;0.10;;;4.40;99.90;;;;;;4993348;28;20437;-73
2023/03/08 08:38:49;;;;;;;1.33;1.17;;;4.40;99.90;;;;;;4993540;28;20456;-73
2023/03/08 08:41:18;;;;;;;0.50;0.10;;;4.40;99.90;;;;;;4993600;28;20464;-73
2023/03/08 08:43:47;;;;;;;0.50;0.10;;;4.40;99.90;;;;;;4993831;28;20495;-72
2023/03/08 08:46:15;;;;;;;0.73;0.73;;;4.40;99.90;;;;;;4993282;28;20818;-72
2023/03/08 08:48:44;;;;;;;0.50;0.10;;;4.40;99.90;;;;;;4993849;28;20819;-72
2023/03/08 08:51:13;;;;;;;0.50;0.10;;;4.40;99.90;;;;;;4994238;28;20529;-72
2023/03/08 08:53:42;;;;;;;0.50;0.10;;;4.40;99.90;;;;;;4994250;28;20920;-75
2023/03/08 08:56:17;;;;;;;0.50;0.10;;;4.40;99.90;;;;;;4993890;28;20487;-72
2023/03/08 08:58:55;;;;;;;0.50;0.10;;;4.40;99.90;;;;;;4993763;28;21010;-75
2023/03/08 09:01:25;;;;;;;0.50;0.10;;;4.50;99.90;;;;;;4993352;28;20490;-72
2023/03/08 09:03:53;;;;;;;0.50;0.10;;;;;;;;;;4993123;28;20850;-72
2023/03/08 09:06:23;;;;;;;0.50;0.10;;;4.60;99.90;;;;;;4994160;28;20491;-72
2023/03/08 09:08:51;;;;;;;0.50;0.10;;;4.70;99.90;;;;;;4995612;28;20513;-74
2023/03/08 09:11:21;;;;;;;0.50;0.10;;;4.70;99.90;;;;;;4995888;28;20490;-72
2023/03/08 09:13:49;;;;;;;0.50;0.10;;;4.70;99.90;;;;;;5002367;28;20481;-73
2023/03/08 09:16:18;;;;;;;0.50;0.10;;;4.80;99.90;;;;;;5007946;28;20470;-72
2023/03/08 09:18:47;;;;;;;0.50;0.10;;;4.90;99.90;;;;;;5015737;28;20933;-73
2023/03/08 09:21:15;;;;;;;0.50;0.10;;;4.90;99.90;;;;;;5014738;28;20470;-72
2023/03/08 09:23:44;;;;;;;1.37;0.70;;;4.90;99.90;;;;;;5001055;28;20439;-73
2023/03/08 09:26:12;;;;;;;0.50;0.10;;;4.60;99.90;;;;;;4997964;28;20446;-72
2023/03/08 09:28:41;;;;;;;0.50;0.10;;;4.60;99.90;;;;;;5001847;28;20863;-73
2023/03/08 09:31:13;;;;;;;0.50;0.10;;;4.70;99.90;;;;;;4999837;28;21230;-73
2023/03/08 09:33:43;;;;;;;0.50;0.10;;;4.70;99.90;;;;;;4998728;28;20478;-74
2023/03/08 09:36:12;;;;;;;0.50;0.10;;;4.70;99.90;;;;;;4997780;28;20443;-73
2023/03/08 09:38:39;;;;;;;0.50;0.10;;;4.60;99.90;;;;;;4997401;28;20447;-72
2023/03/08 09:41:24;;;;;;;0.50;0.10;;;4.60;99.90;;;;;;4997313;28;20476;-73
2023/03/08 09:44:09;;;;;;;0.50;0.10;;;4.60;99.90;;;;;;4997159;28;20445;-73
2023/03/08 09:46:45;;;;;;;0.50;0.10;;;4.60;99.90;;;;;;4996928;28;20474;-73
2023/03/08 09:49:18;;;;;;;0.50;0.10;;;4.70;99.90;;;;;;4996398;28;20454;-73
2023/03/08 09:51:50;;;;;;;0.50;0.10;;;4.70;99.90;;;;;;4997454;28;20495;-73
2023/03/08 09:54:22;;;;;;;0.50;0.30;;;4.60;99.90;;;;;;4996554;28;20997;-72
2023/03/08 09:56:52;;;;;;;0.50;0.10;;;4.60;99.90;;;;;;4996672;28;20455;-73
2023/03/08 09:59:26;;;;;;;0.50;0.10;;;4.60;99.90;;;;;;4996605;28;20523;-73
2023/03/08 10:02:02;;;;;;;0.50;0.10;;;4.70;99.90;;;;;;4996252;28;20489;-73
2023/03/08 10:04:50;;;;;;;0.50;0.10;;;4.70;99.90;;;;;;4996469;28;20461;-73
2023/03/08 10:07:48;;;;;;;0.50;0.10;;;4.60;99.90;;;;;;4997268;28;20843;-74
2023/03/08 10:10:25;;;;;;;0.50;0.10;;;4.60;99.90;;;;;;4997079;28;20477;-73
2023/03/08 10:13:08;;;;;;;0.50;0.10;;;4.60;99.90;;;;;;4997074;28;20495;-73
2023/03/08 10:15:41;;;;;;;0.50;0.10;;;4.50;99.90;;;;;;4996112;28;20989;-72
2023/03/08 10:18:16;;;;;;;0.70;0.70;;;4.40;99.90;;;;;;4996696;28;20447;-73
2023/03/08 10:20:45;;;;;;;0.50;0.10;;;4.50;99.90;;;;;;4996399;28;20523;-72
2023/03/08 10:23:16;;;;;;;0.50;0.10;;;4.50;99.90;;;;;;4996207;28;20443;-74
2023/03/08 10:25:45;;;;;;;0.60;0.50;;;4.60;99.90;;;;;;4996116;28;20452;-74
2023/03/08 10:28:15;;;;;;;0.50;0.10;;;4.60;99.90;;;;;;4996186;28;20597;-73
2023/03/08 10:30:49;;;;;;;0.50;0.10;;;4.70;99.90;;;;;;4995775;28;20450;-73
2023/03/08 10:33:19;;;;;;;0.50;0.10;;;4.70;99.90;;;;;;4996619;28;20483;-73
2023/03/08 10:35:55;;;;;;;0.50;0.10;;;4.80;99.90;;;;;;4995825;28;20839;-74
2023/03/08 10:38:26;;;;;;;0.50;0.10;;;4.80;99.90;;;;;;4995847;28;20751;-73
2023/03/08 10:41:00;;;;;;;0.50;0.10;;;4.90;99.90;;;;;;4996206;28;20467;-74
2023/03/08 10:43:30;;;;;;;0.50;0.10;;;4.90;99.90;;;;;;4997237;28;20449;-72
2023/03/08 10:46:01;;;;;;;0.50;0.10;;;4.90;99.90;;;;;;4999328;28;20446;-72
2023/03/08 10:48:29;;;;;;;0.50;0.10;;;4.90;99.90;;;;;;5001076;28;20475;-75
2023/03/08 10:51:01;;;;;;;0.50;0.10;;;4.80;99.90;;;;;;5001323;28;21051;-73
2023/03/08 10:53:30;;;;;;;0.70;0.40;;;4.80;99.90;;;;;;5001334;28;20472;-74
2023/03/08 10:55:59;;;;;;;0.50;0.10;;;4.90;99.90;;;;;;4999206;28;20443;-74
2023/03/08 10:58:31;;;;;;;0.50;0.10;;;5.00;99.90;;;;;;4996534;28;20503;-74
2023/03/08 11:01:03;;;;;;;0.50;0.17;;;5.00;99.90;;;;;;4996278;28;20485;-74
2023/03/08 11:03:31;;;;;;;0.50;0.10;;;5.00;99.90;;;;;;4998879;28;20451;-72
2023/03/08 11:06:00;;;;;;;0.50;0.10;;;5.00;99.90;;;;;;4998925;28;20926;-73
2023/03/08 11:08:31;;;;;;;0.50;0.10;;;5.10;99.90;;;;;;4995564;28;20458;-73
2023/03/08 11:11:08;;;;;;;0.50;0.10;;;5.10;99.90;;;;;;4996348;28;20472;-72
2023/03/08 11:13:38;;;;;;;0.50;0.10;;;5.10;99.90;;;;;;4995874;28;20493;-74
2023/03/08 11:16:38;;;;;;;0.50;0.10;;;5.10;99.90;;;;;;4994748;28;20460;-73
2023/03/08 11:19:15;;;;;;;0.50;0.10;;;5.00;99.90;;;;;;4988747;28;20455;-74
2023/03/08 11:21:55;;;;;;;0.50;0.10;;;4.90;99.90;;;;;;4994881;28;20469;-73
2023/03/08 11:24:30;;;;;;;1.13;1.03;;;4.90;99.90;;;;;;4994730;28;21029;-73
2023/03/08 11:27:11;;;;;;;0.50;0.10;;;4.90;99.90;;;;;;4994958;28;20451;-73
2023/03/08 11:29:51;;;;;;;0.50;0.10;;;4.90;99.90;;;;;;4995565;28;20451;-75
2023/03/08 11:32:36;;;;;;;0.50;0.10;;;4.80;99.90;;;;;;4995955;28;20467;-72
2023/03/08 11:35:12;;;;;;;0.50;0.20;;;4.80;99.90;;;;;;4995003;28;20479;-73
2023/03/08 11:37:45;;;;;;;0.50;0.10;;;4.80;99.90;;;;;;4995249;28;20458;-73
2023/03/08 11:40:23;;;;;;;0.50;0.10;;;4.80;99.90;;;;;;4997259;28;20461;-74
2023/03/08 11:43:02;;;;;;;0.50;0.10;;;4.80;99.90;;;;;;5001215;28;20817;-72
2023/03/08 11:45:36;;;;;;;0.50;0.10;;;4.80;99.90;;;;;;5001309;28;20445;-72
2023/03/08 11:48:30;;;;;;;0.50;0.10;;;4.90;99.90;;;;;;4998408;28;20467;-72
2023/03/08 11:51:06;;;;;;;0.50;0.10;;;5.00;99.90;;;;;;4995926;28;20459;-72
2023/03/08 11:53:44;;;;;;;0.50;0.10;;;5.00;99.90;;;;;;4994812;28;20454;-72
2023/03/08 11:56:36;;;;;;;0.50;0.10;;;5.10;99.90;;;;;;4994492;28;20505;-72
2023/03/08 11:59:11;;;;;;;0.50;0.10;;;5.10;99.90;;;;;;4981760;28;20449;-72
2023/03/08 12:01:45;;;;;;;0.50;0.10;;;5.20;99.90;;;;;;4994426;28;20477;-73
2023/03/08 12:04:18;;;;;;;0.50;0.10;;;5.20;99.90;;;;;;4994845;28;20506;-74
2023/03/08 12:06:47;;;;;;;0.50;0.10;;;5.20;99.90;;;;;;4994604;28;20458;-73
2023/03/08 12:09:25;;;;;;;0.50;0.10;;;5.30;99.90;;;;;;4996008;28;20451;-73
2023/03/08 12:11:58;;;;;;;0.50;0.10;;;5.30;99.90;;;;;;4995908;28;20472;-73
2023/03/08 12:14:30;;;;;;;0.50;0.10;;;5.30;99.90;;;;;;4994424;28;20483;-73
2023/03/08 12:17:05;;;;;;;0.50;0.20;;;5.40;99.90;;;;;;4994915;28;20452;-73
2023/03/08 12:19:41;;;;;;;0.50;0.10;;;5.40;99.90;;;;;;4994441;28;20475;-73
2023/03/08 12:22:23;;;;;;;0.50;0.10;;;5.50;99.90;;;;;;4995829;28;20859;-73
2023/03/08 12:24:55;;;;;;;0.50;0.10;;;5.50;99.90;;;;;;5013726;28;21012;-72
2023/03/08 12:27:30;;;;;;;0.50;0.10;;;5.50;99.90;;;;;;5013228;28;20459;-72
2023/03/08 12:30:11;;;;;;;0.50;0.10;;;5.50;99.90;;;;;;5013067;28;20451;-73
2023/03/08 12:32:41;;;;;;;0.60;0.30;;;5.50;99.90;;;;;;5013468;28;20466;-73
2023/03/08 12:35:27;;;;;;;0.50;0.20;;;5.50;99.90;;;;;;5013638;28;20573;-72
2023/03/08 12:37:56;;;;;;;0.50;0.10;;;5.50;99.90;;;;;;5014487;28;20450;-72
2023/03/08 12:40:31;;;;;;;0.50;0.10;;;5.40;99.90;;;;;;5014175;28;20809;-72
2023/03/08 12:43:09;;;;;;;0.50;0.10;;;5.40;99.90;;;;;;5013073;28;20457;-73
2023/03/08 12:45:37;;;;;;;0.50;0.10;;;5.40;99.90;;;;;;5013323;28;20439;-72
2023/03/08 12:48:17;;;;;;;0.50;0.27;;;5.40;99.90;;;;;;5016963;28;20450;-72
2023/03/08 12:50:57;;;;;;;0.50;0.10;;;5.40;99.90;;;;;;5015748;28;20864;-73
2023/03/08 12:53:33;;;;;;;0.50;0.10;;;5.40;99.90;;;;;;5014261;28;20446;-73
2023/03/08 12:56:04;;;;;;;0.50;0.10;;;5.40;99.90;;;;;;5013671;28;20508;-73
2023/03/08 12:58:34;;;;;;;0.50;0.10;;;5.50;99.90;;;;;;5015622;28;20606;-73
2023/03/08 13:01:05;;;;;;;0.50;0.10;;;5.50;99.90;;;;;;5017057;28;20475;-73
2023/03/08 13:03:38;;;;;;;0.50;0.10;;;5.50;99.90;;;;;;5018088;28;20435;-74
2023/03/08 13:06:36;;;;;;;0.50;0.10;;;5.50;99.90;;;;;;5017009;28;20446;-72
2023/03/08 13:09:13;;;;;;;0.60;0.50;;;5.50;99.90;;;;;;5017331;28;20453;-74
2023/03/08 13:11:45;;;;;;;0.50;0.10;;;5.50;99.90;;;;;;5017087;28;21008;-72
2023/03/08 13:14:26;;;;;;;0.50;0.10;;;5.50;99.90;;;;;;5017455;28;20438;-73
2023/03/08 13:16:54;;;;;;;0.50;0.10;;;5.50;99.90;;;;;;5017038;28;20450;-73
2023/03/08 13:19:26;;;;;;;0.50;0.10;;;5.50;99.90;;;;;;5017115;28;20446;-73
2023/03/08 13:22:05;;;;;;;0.50;0.10;;;5.50;99.90;;;;;;5016440;28;20823;-74
2023/03/08 13:24:39;;;;;;;0.50;0.10;;;5.60;1.00;;;;;;4997440;28;20452;-73
2023/03/08 13:27:22;;;;;;;0.50;0.10;;;5.60;1.00;;;;;;4997330;28;20467;-75
2023/03/08 13:29:50;;;;;;;0.50;0.10;;;;;;;;;;4997504;28;20943;-74
2023/03/08 13:32:20;;;;;;;0.60;0.60;;;5.60;1.00;;;;;;4996930;28;20479;-75
2023/03/08 13:34:58;;;;;;;0.50;0.10;;;5.60;1.00;;;;;;4996695;28;20491;-75
2023/03/08 13:37:30;;;;;;;0.50;0.10;;;5.60;1.00;;;;;;4997220;28;20452;-73
2023/03/08 13:39:59;;;;;;;0.50;0.10;;;5.70;1.00;;;;;;4997378;28;20472;-73
2023/03/08 13:42:28;;;;;;;0.50;0.10;;;5.70;1.00;;;;;;4996971;28;20474;-73
2023/03/08 13:45:08;;;;;;;0.60;0.50;;;5.70;1.00;;;;;;4996867;28;20447;-73
2023/03/08 13:47:39;;;;;;;0.50;0.10;;;5.70;1.00;;;;;;4998356;28;20451;-74
2023/03/08 13:50:16;;;;;;;0.50;0.10;;;5.70;1.00;;;;;;4997158;28;20494;-74
2023/03/08 13:52:46;;;;;;;0.50;0.10;;;5.70;1.00;;;;;;4997093;28;20478;-74
2023/03/08 13:55:20;;;;;;;0.50;0.10;;;5.70;1.00;;;;;;4997128;28;20487;-75
2023/03/08 13:57:51;;;;;;;0.50;0.10;;;5.70;1.00;;;;;;4996584;28;20451;-73
2023/03/08 14:00:28;;;;;;;0.50;0.10;;;5.80;1.00;;;;;;4996558;28;20812;-74
2023/03/08 14:02:57;;;;;;;0.50;0.10;;;5.70;1.00;;;;;;4996476;28;20475;-74
2023/03/08 14:05:27;;;;;;;0.50;0.10;;;5.70;1.00;;;;;;4996113;28;20443;-73
2023/03/08 14:07:58;;;;;;;0.50;0.10;;;5.70;1.00;;;;;;4996798;28;20447;-74
2023/03/08 14:10:34;;;;;;;0.50;0.10;;;5.80;1.00;;;;;;4996386;28;20443;-73
2023/03/08 14:13:03;;;;;;;0.50;0.10;;;5.70;1.00;;;;;;4996908;28;20471;-74
2023/03/08 14:15:33;;;;;;;0.50;0.10;;;5.80;1.00;;;;;;4995454;28;20486;-73
2023/03/08 14:18:03;;;;;;;0.50;0.10;;;5.80;1.00;;;;;;4995296;28;20536;-73
2023/03/08 14:20:31;;;;;;;0.50;0.10;;;5.80;1.00;;;;;;4996179;28;20855;-72
2023/03/08 14:23:01;;;;;;;0.50;0.10;;;5.80;1.00;;;;;;5005053;28;20501;-74
2023/03/08 14:25:30;;;;;;;0.50;0.10;;;5.80;1.00;;;;;;5015851;28;20447;-74
2023/03/08 14:27:58;;;;;;;0.50;0.10;;;5.70;1.00;;;;;;5016715;28;20454;-73
2023/03/08 14:30:28;;;;;;;0.50;0.10;;;5.70;1.00;;;;;;5015862;28;20455;-74
2023/03/08 14:33:05;;;;;;;0.50;0.10;;;5.70;1.00;;;;;;5015654;28;20451;-73
2023/03/08 14:35:36;;;;;;;0.50;0.10;;;5.70;1.00;;;;;;5015088;28;20995;-73
2023/03/08 14:38:13;;;;;;;0.60;0.40;;;5.60;1.00;;;;;;5015442;28;20457;-74
2023/03/08 14:40:47;;;;;;;0.50;0.30;;;5.60;1.00;;;;;;5016041;28;20453;-74
2023/03/08 14:43:18;;;;;;;0.50;0.10;;;5.60;1.00;;;;;;5015159;28;20459;-73
2023/03/08 14:45:53;;;;;;;0.50;0.10;;;5.60;1.00;;;;;;5014769;28;20951;-73
2023/03/08 14:48:24;;;;;;;0.50;0.10;;;5.50;1.00;;;;;;5015233;28;20460;-73
2023/03/08 14:50:55;;;;;;;0.50;0.10;;;5.50;1.00;;;;;;5015969;28;20480;-73
2023/03/08 14:53:29;;;;;;;0.50;0.10;;;5.50;1.00;;;;;;5015470;28;20451;-74
2023/03/08 14:55:58;;;;;;;0.50;0.10;;;5.50;1.00;;;;;;5014947;28;20482;-73
2023/03/08 14:58:29;;;;;;;0.50;0.10;;;5.50;1.00;;;;;;5015290;28;20446;-73
2023/03/08 15:00:59;;;;;;;0.60;0.47;;;5.50;1.00;;;;;;5014629;28;20474;-73
2023/03/08 15:03:28;;;;;;;0.50;0.10;;;5.50;1.00;;;;;;5015543;28;20458;-73
2023/03/08 15:05:57;;;;;;;0.50;0.10;;;5.50;1.00;;;;;;5014940;28;20446;-74
2023/03/08 15:08:26;;;;;;;0.50;0.10;;;5.50;1.00;;;;;;5015926;28;20971;-74
2023/03/08 15:10:54;;;;;;;0.50;0.10;;;5.50;1.00;;;;;;5017501;28;20489;-73
2023/03/08 15:13:23;;;;;;;0.50;0.10;;;5.50;1.00;;;;;;5016416;28;20450;-73
2023/03/08 15:15:51;;;;;;;0.50;0.20;;;5.50;1.00;;;;;;5016655;28;21009;-72
2023/03/08 15:18:19;;;;;;;0.50;0.10;;;5.60;1.00;;;;;;5015936;28;20481;-73
2023/03/08 15:20:50;;;;;;;0.50;0.10;;;5.60;1.00;;;;;;5015172;28;20459;-73
2023/03/08 15:23:21;;;;;;;1.63;1.53;;;5.50;1.00;;;;;;5005035;28;20937;-74
2023/03/08 15:25:51;;;;;;;0.50;0.10;;;5.50;1.00;;;;;;4996321;28;20439;-73
2023/03/08 15:28:20;;;;;;;0.50;0.10;;;5.50;1.00;;;;;;4996069;28;20454;-75
2023/03/08 15:30:49;;;;;;;0.50;0.10;;;5.50;1.00;;;;;;4995654;28;20494;-73
2023/03/08 15:33:17;;;;;;;0.53;0.20;;;5.50;1.00;;;;;;4995835;28;20453;-75
2023/03/08 15:35:45;;;;;;;0.50;0.10;;;5.60;1.00;;;;;;4994220;28;20467;-74
2023/03/08 15:38:14;;;;;;;0.50;0.10;;;5.50;1.00;;;;;;4994307;28;20902;-73
2023/03/08 15:40:42;;;;;;;0.50;0.10;;;5.50;1.00;;;;;;4995452;28;20513;-73
2023/03/08 15:43:12;;;;;;;0.50;0.10;;;5.50;1.00;;;;;;4995205;28;20440;-71
2023/03/08 15:45:39;;;;;;;0.50;0.10;;;5.50;1.00;;;;;;4995318;28;20464;-73
2023/03/08 15:48:12;;;;;;;0.50;0.10;;;5.50;1.00;;;;;;4999488;28;20953;-71
2023/03/08 15:50:40;;;;;;;0.50;0.10;;;5.60;1.00;;;;;;4996506;28;20828;-72
2023/03/08 15:53:08;;;;;;;0.50;0.10;;;5.60;1.00;;;;;;5003163;28;20838;-74
2023/03/08 15:55:37;;;;;;;0.50;0.10;;;5.60;1.00;;;;;;4994784;28;20448;-72
2023/03/08 15:58:05;;;;;;;0.50;0.10;;;5.60;1.00;;;;;;5000511;28;20479;-72
2023/03/08 16:00:37;;;;;;;0.50;0.10;;;5.70;1.00;;;;;;5001721;28;20453;-72
2023/03/08 16:03:05;;;;;;;0.50;0.10;;;5.70;1.00;;;;;;5001877;28;20463;-74
2023/03/08 16:05:32;;;;;;;2.30;2.20;;;5.70;1.00;;;;;;4994828;28;20450;-74
2023/03/08 16:08:02;;;;;;;0.50;0.10;;;5.70;1.00;;;;;;4994768;28;20482;-73
2023/03/08 16:10:39;;;;;;;0.50;0.10;;;5.80;1.00;;;;;;4995264;28;20541;-74
2023/03/08 16:13:07;;;;;;;0.60;0.43;;;5.80;1.00;;;;;;4996352;28;20448;-72
2023/03/08 16:15:38;;;;;;;0.50;0.10;;;5.80;1.00;;;;;;5003789;28;20447;-72
2023/03/08 16:18:06;;;;;;;0.50;0.10;;;5.80;1.00;;;;;;4997352;28;20488;-73
2023/03/08 16:20:34;;;;;;;0.60;0.10;;;5.70;1.00;;;;;;4995558;28;20585;-71
2023/03/08 16:23:02;;;;;;;0.50;0.10;;;5.70;1.00;;;;;;4995045;28;20451;-75
2023/03/08 16:25:30;;;;;;;0.50;0.10;;;5.70;1.00;;;;;;4993692;28;20997;-74
2023/03/08 16:27:57;;;;;;;0.50;0.10;;;5.70;1.00;;;;;;5005651;28;20466;-73
2023/03/08 16:30:25;;;;;;;0.50;0.10;;;5.70;1.00;;;;;;5007402;28;20965;-72
2023/03/08 16:32:54;;;;;;;0.50;0.10;;;5.60;1.00;;;;;;5012979;28;20467;-75
2023/03/08 16:35:22;;;;;;;0.50;0.10;;;5.70;1.00;;;;;;5016673;28;20966;-73
2023/03/08 16:37:52;;;;;;;0.50;0.10;;;5.70;1.00;;;;;;5016983;28;20573;-74
2023/03/08 16:40:20;;;;;;;0.50;0.10;;;5.70;1.00;;;;;;5016655;28;20821;-73
2023/03/08 16:42:50;;;;;;;0.50;0.10;;;5.70;1.00;;;;;;5017400;28;20466;-72
2023/03/08 16:45:18;;;;;;;0.60;0.20;;;7.00;1.00;;;;;;5017383;28;20439;-72
2023/03/08 16:47:46;;;;;;;0.50;0.10;;;5.70;1.00;;;;;;5018640;28;20443;-78
2023/03/08 16:50:15;;;;;;;9.43;8.60;;;5.80;1.00;;;;;;5018292;28;20484;-72
2023/03/08 16:52:43;;;;;;;0.50;0.10;;;5.70;1.00;;;;;;4976406;28;20478;-72
2023/03/08 16:55:11;;;;;;;0.50;0.10;;;5.70;1.00;;;;;;4990514;28;20605;-72
2023/03/08 16:57:40;;;;;;;0.50;0.10;;;5.70;1.00;;;;;;5011780;28;20494;-72
2023/03/08 17:00:11;;;;;;;0.50;0.10;;;5.70;1.00;;;;;;4996023;28;20446;-72
2023/03/08 17:02:39;;;;;;;0.50;0.10;;;5.70;1.00;;;;;;5012001;28;20561;-70
2023/03/08 17:05:09;;;;;;;0.50;0.10;;;5.70;1.00;;;;;;5002889;28;20460;-72
2023/03/08 17:07:38;;;;;;;0.50;0.10;;;5.70;1.00;;;;;;5005807;28;20446;-73
2023/03/08 17:10:08;;;;;;;0.50;0.10;;;5.60;1.00;;;;;;5010869;28;21057;-72
2023/03/08 17:12:35;;;;;;;1.23;0.67;;;5.60;1.00;;;;;;4999546;28;20468;-72
2023/03/08 17:15:04;;;;;;;0.50;0.10;;;5.60;1.00;;;;;;5008503;28;20474;-72
2023/03/08 17:17:32;;;;;;;0.50;0.20;;;5.50;1.00;;;;;;5011137;28;20478;-72
2023/03/08 17:20:00;;;;;;;0.50;0.10;;;5.50;1.00;;;;;;4997283;28;20543;-75
2023/03/08 17:22:28;;;;;;;3.97;3.77;;;5.50;1.00;;;;;;5009851;28;20466;-71